Welcome to Northern Hawkes Bay. New Zealand.
PWS Header
      nz Flag



Hit Counter


W3C Valid W3C Valid logo


    Wairoa

Select any of the Stations below to visit their websites.










Historic Data from Weather Underground
Select the location of interest below. Wairoa is the default. Please have patience, this Data is slow to load in.
Northern Hawkes Bay Historical Data
Daily Summary for October 14, 2017 Units:  Metric    English   Both
« Previous Day
Next Day »
Daily Weekly Monthly Yearly Custom
  High: Low: Average:
Temperature: 23.6 °C 9.9 °C 14.7 °C
Dew Point: 11.7 °C 2.9 °C 8 °C
Humidity: 88% 29% 66%
Wind Speed: 25.6km/h 0.0km/h 5.7km/h
Wind Gust: 45.4km/h - -
Wind- - West
Pressure: 1013.8 hPa 1009.4 hPa -
Precipitation: 3.0 mm    
Historical Graphs
 
 
Tabular Data for October 14, 2017
Time Temperature Dew Point Pressure Wind Wind Speed Wind Gust Humidity Rainfall Rate (Hourly) solar
00:04 22.3 °C 11.7 °C 1010.0 hPa SE 6.1 km/h 11.1 km/h 51% 0.0 mm 271 W/m2
00:09 22.2 °C 11.0 °C 1010.0 hPa SSE 1.1 km/h 11.1 km/h 49% 0.0 mm 258 W/m2
00:14 22.7 °C 11.4 °C 1010.0 hPa Calm   9.7 km/h 49% 0.0 mm 247 W/m2
00:19 23.4 °C 7.1 °C 1010.0 hPa SE 6.1 km/h 8.7 km/h 35% 0.0 mm 235 W/m2
00:24 23.2 °C 4.7 °C 1010.0 hPa Calm   8.7 km/h 30% 0.0 mm 223 W/m2
00:29 23.6 °C 4.6 °C 1010.0 hPa East 3.5 km/h 8.7 km/h 29% 0.0 mm 211 W/m2
00:34 23.3 °C 5.7 °C 1009.7 hPa ESE 3.5 km/h 8.7 km/h 32% 0.0 mm 199 W/m2
00:39 22.8 °C 5.7 °C 1009.7 hPa ESE 3.5 km/h 9.7 km/h 33% 0.0 mm 187 W/m2
00:44 23.2 °C 7.3 °C 1009.7 hPa East 1.1 km/h 9.7 km/h 36% 0.0 mm 174 W/m2
00:49 23.3 °C 7.0 °C 1009.7 hPa East 3.5 km/h 7.2 km/h 35% 0.0 mm 162 W/m2
00:54 22.6 °C 6.4 °C 1009.7 hPa East 5.0 km/h 8.7 km/h 35% 0.0 mm 50 W/m2
00:59 21.4 °C 6.1 °C 1009.7 hPa Calm   8.7 km/h 37% 0.0 mm 42 W/m2
01:04 21.4 °C 6.5 °C 1009.7 hPa Calm   8.7 km/h 38% 0.0 mm 44 W/m2
01:09 21.3 °C 6.1 °C 1009.7 hPa Calm   5.0 km/h 37% 0.0 mm 69 W/m2
01:14 21.8 °C 6.5 °C 1009.7 hPa Calm   5.0 km/h 37% 0.0 mm 41 W/m2
01:20 21.2 °C 4.3 °C 1009.7 hPa Calm   6.1 km/h 33% 0.0 mm 34 W/m2
01:25 20.9 °C 5.7 °C 1009.7 hPa Calm   6.1 km/h 37% 0.0 mm 34 W/m2
01:30 20.9 °C 6.4 °C 1009.7 hPa East 1.1 km/h 3.5 km/h 39% 0.0 mm 35 W/m2
01:35 21.2 °C 6.7 °C 1009.7 hPa Calm   3.5 km/h 39% 0.0 mm 46 W/m2
01:40 21.8 °C 8.0 °C 1009.7 hPa Calm   3.5 km/h 41% 0.0 mm 28 W/m2
01:45 21.1 °C 8.1 °C 1009.7 hPa Calm   3.5 km/h 43% 0.0 mm 28 W/m2
01:50 20.3 °C 9.8 °C 1010.0 hPa Calm   3.5 km/h 51% 0.0 mm 26 W/m2
01:55 19.7 °C 10.4 °C 1010.0 hPa Calm   3.5 km/h 55% 0.0 mm 21 W/m2
02:00 19.4 °C 10.1 °C 1010.0 hPa Calm     55% 0.0 mm 18 W/m2
02:05 19.1 °C 10.1 °C 1009.7 hPa Calm     56% 0.0 mm 13 W/m2
02:11 18.7 °C 10.8 °C 1010.0 hPa Calm     60% 0.0 mm 9 W/m2
02:16 18.1 °C 10.7 °C 1009.7 hPa Calm     62% 0.0 mm 5 W/m2
02:21 17.6 °C 10.0 °C 1009.7 hPa Calm     61% 0.0 mm 2 W/m2
02:26 17.1 °C 9.5 °C 1010.0 hPa Calm     61% 0.0 mm 0 W/m2
02:31 16.8 °C 9.7 °C 1009.7 hPa Calm     63% 0.0 mm 0 W/m2
02:36 16.7 °C 10.3 °C 1009.7 hPa Calm     66% 0.0 mm 0 W/m2
02:42 16.0 °C 10.6 °C 1010.0 hPa Calm   5.0 km/h 70% 0.0 mm 0 W/m2
03:03 15.0 °C 10.8 °C 1010.0 hPa Calm     76% 0.0 mm 0 W/m2
03:08 14.9 °C 11.1 °C 1010.0 hPa Calm     78% 0.0 mm 0 W/m2
03:13 14.7 °C 11.1 °C 1010.0 hPa Calm     79% 0.0 mm 0 W/m2
03:18 14.5 °C 11.1 °C 1010.0 hPa Calm     80% 0.0 mm 0 W/m2
03:23 14.4 °C 11.4 °C 1010.0 hPa Calm     82% 0.0 mm 0 W/m2
03:28 14.3 °C 11.6 °C 1010.0 hPa Calm     84% 0.0 mm 0 W/m2
03:33 14.0 °C 11.3 °C 1010.0 hPa Calm     84% 0.0 mm 0 W/m2
03:38 13.7 °C 11.2 °C 1010.0 hPa Calm     85% 0.0 mm 0 W/m2
03:43 13.6 °C 11.1 °C 1010.0 hPa Calm     85% 0.0 mm 0 W/m2
03:48 13.6 °C 11.1 °C 1010.0 hPa Calm     85% 0.0 mm 0 W/m2
03:53 13.4 °C 11.1 °C 1010.0 hPa Calm     86% 0.0 mm 0 W/m2
03:58 13.3 °C 11.0 °C 1010.0 hPa Calm   1.1 km/h 86% 0.0 mm 0 W/m2
04:03 13.2 °C 10.7 °C 1010.0 hPa Calm   1.1 km/h 85% 0.0 mm 0 W/m2
04:08 13.1 °C 10.4 °C 1010.0 hPa Calm     84% 0.0 mm 0 W/m2
04:13 13.0 °C 10.4 °C 1010.0 hPa Calm   1.1 km/h 84% 0.0 mm 0 W/m2
04:18 12.9 °C 10.1 °C 1010.4 hPa Calm   1.1 km/h 83% 0.0 mm 0 W/m2
04:23 12.8 °C 10.0 °C 1010.4 hPa Calm   2.6 km/h 83% 0.0 mm 0 W/m2
04:28 12.7 °C 9.9 °C 1010.4 hPa Calm   2.6 km/h 83% 0.0 mm 0 W/m2
04:33 12.7 °C 9.9 °C 1010.4 hPa NNW 1.1 km/h 3.5 km/h 83% 0.0 mm 0 W/m2
04:38 12.7 °C 9.9 °C 1010.7 hPa NW 1.1 km/h 3.5 km/h 83% 0.0 mm 0 W/m2
04:43 12.5 °C 9.9 °C 1010.4 hPa NNW 1.1 km/h 3.5 km/h 84% 0.0 mm 0 W/m2
04:48 12.4 °C 9.8 °C 1010.4 hPa NNW 1.1 km/h 3.5 km/h 84% 0.0 mm 0 W/m2
04:53 12.2 °C 9.8 °C 1010.4 hPa Calm   3.5 km/h 85% 0.0 mm 0 W/m2
04:58 12.1 °C 9.7 °C 1010.4 hPa Calm   2.6 km/h 85% 0.0 mm 0 W/m2
05:03 12.0 °C 9.6 °C 1010.4 hPa Calm   1.1 km/h 85% 0.0 mm 0 W/m2
05:08 11.9 °C 9.4 °C 1010.4 hPa Calm   1.1 km/h 85% 0.0 mm 0 W/m2
05:10 11.9 °C 9.4 °C 1010.0 hPa Calm   1.1 km/h 85% 0.0 mm 0 W/m2
05:15 11.8 °C 9.6 °C 1010.0 hPa Calm   1.1 km/h 86% 0.0 mm 0 W/m2
05:20 11.7 °C 9.4 °C 1010.4 hPa NNW 1.1 km/h 3.5 km/h 86% 0.0 mm 0 W/m2
05:25 11.6 °C 9.3 °C 1010.0 hPa NW 5.0 km/h 7.2 km/h 86% 0.0 mm 0 W/m2
05:30 11.6 °C 9.2 °C 1010.4 hPa NNW 5.0 km/h 8.7 km/h 85% 0.0 mm 0 W/m2
05:35 11.7 °C 9.3 °C 1010.0 hPa NNW 2.6 km/h 8.7 km/h 85% 0.0 mm 0 W/m2
05:40 11.7 °C 9.1 °C 1010.4 hPa NW 2.6 km/h 7.2 km/h 84% 0.0 mm 0 W/m2
05:45 11.7 °C 9.1 °C 1010.0 hPa NW 2.6 km/h 5.0 km/h 84% 0.0 mm 0 W/m2
05:51 11.9 °C 9.3 °C 1010.4 hPa NW 1.1 km/h 5.0 km/h 84% 0.0 mm 0 W/m2
05:56 12.0 °C 9.0 °C 1010.4 hPa NW 2.6 km/h 5.0 km/h 82% 0.0 mm 0 W/m2
06:01 12.0 °C 9.0 °C 1010.4 hPa NW 2.6 km/h 5.0 km/h 82% 0.0 mm 0 W/m2
06:06 12.0 °C 8.8 °C 1010.4 hPa NW 2.6 km/h 5.0 km/h 81% 0.0 mm 0 W/m2
06:11 12.1 °C 8.9 °C 1010.4 hPa NW 3.5 km/h 5.0 km/h 81% 0.0 mm 0 W/m2
06:16 12.1 °C 8.9 °C 1010.0 hPa NW 2.6 km/h 6.1 km/h 81% 0.0 mm 0 W/m2
06:21 12.1 °C 8.9 °C 1010.4 hPa NW 1.1 km/h 6.1 km/h 81% 0.0 mm 0 W/m2
06:26 11.9 °C 8.9 °C 1010.4 hPa Calm   5.0 km/h 82% 0.0 mm 0 W/m2
06:31 11.6 °C 8.6 °C 1010.4 hPa Calm   2.6 km/h 82% 0.0 mm 0 W/m2
06:36 11.4 °C 8.6 °C 1010.4 hPa Calm   2.6 km/h 83% 0.0 mm 0 W/m2
06:41 11.2 °C 8.6 °C 1010.0 hPa Calm   2.6 km/h 84% 0.0 mm 0 W/m2
06:46 11.2 °C 8.6 °C 1010.4 hPa Calm   2.6 km/h 84% 0.0 mm 0 W/m2
06:51 11.2 °C 8.8 °C 1010.4 hPa Calm   2.6 km/h 85% 0.0 mm 0 W/m2
06:56 11.0 °C 8.6 °C 1010.4 hPa Calm   2.6 km/h 85% 0.0 mm 0 W/m2
07:01 11.0 °C 8.6 °C 1010.4 hPa Calm   2.6 km/h 85% 0.0 mm 0 W/m2
07:07 10.9 °C 8.7 °C 1010.4 hPa Calm   2.6 km/h 86% 0.0 mm 0 W/m2
07:12 10.9 °C 8.8 °C 1010.4 hPa Calm   2.6 km/h 87% 0.0 mm 0 W/m2
07:17 10.9 °C 8.8 °C 1010.4 hPa North 1.1 km/h 5.0 km/h 87% 0.0 mm 0 W/m2
07:22 10.7 °C 8.6 °C 1010.4 hPa Calm   5.0 km/h 87% 0.0 mm 0 W/m2
07:27 10.6 °C 8.6 °C 1010.4 hPa Calm   2.6 km/h 87% 0.0 mm 0 W/m2
07:32 10.4 °C 8.3 °C 1010.4 hPa Calm   1.1 km/h 87% 0.0 mm 0 W/m2
07:37 10.3 °C 8.2 °C 1010.4 hPa Calm   1.1 km/h 87% 0.0 mm 0 W/m2
07:42 10.1 °C 8.1 °C 1010.4 hPa Calm     87% 0.0 mm 0 W/m2
07:47 9.9 °C 8.0 °C 1010.0 hPa Calm     88% 0.0 mm 0 W/m2
07:52 10.1 °C 8.2 °C 1010.7 hPa Calm   1.1 km/h 88% 0.0 mm 0 W/m2
07:57 10.2 °C 8.1 °C 1010.4 hPa NNE 1.1 km/h 3.5 km/h 87% 0.0 mm 0 W/m2
08:02 10.5 °C 7.9 °C 1010.4 hPa North 7.2 km/h 13.4 km/h 84% 0.0 mm 0 W/m2
08:07 11.7 °C 6.8 °C 1010.4 hPa North 7.2 km/h 13.4 km/h 72% 0.0 mm 0 W/m2
08:12 13.3 °C 4.7 °C 1010.4 hPa NNW 7.2 km/h 17.2 km/h 56% 0.0 mm 0 W/m2
08:17 14.2 °C 3.3 °C 1010.4 hPa NW 8.7 km/h 17.2 km/h 48% 0.0 mm 0 W/m2
08:22 14.6 °C 3.1 °C 1010.4 hPa NW 8.7 km/h 18.3 km/h 46% 0.0 mm 0 W/m2
08:27 14.7 °C 3.2 °C 1010.4 hPa NNW 6.1 km/h 18.3 km/h 46% 0.0 mm 0 W/m2
08:32 14.4 °C 2.9 °C 1010.4 hPa NW 5.0 km/h 15.8 km/h 46% 0.0 mm 0 W/m2
08:37 14.2 °C 3.3 °C 1010.4 hPa NW 3.5 km/h 12.2 km/h 48% 0.0 mm 0 W/m2
08:42 13.8 °C 3.6 °C 1010.4 hPa NNW 2.6 km/h 9.7 km/h 50% 0.0 mm 0 W/m2
08:47 13.6 °C 3.9 °C 1010.4 hPa NNW 3.5 km/h 9.7 km/h 52% 0.0 mm 0 W/m2
08:52 13.3 °C 4.2 °C 1010.4 hPa NNW 5.0 km/h 9.7 km/h 54% 0.0 mm 0 W/m2
08:57 13.4 °C 4.3 °C 1010.4 hPa NW 6.1 km/h 14.8 km/h 54% 0.0 mm 0 W/m2
09:02 13.4 °C 4.6 °C 1010.4 hPa NW 7.2 km/h 14.8 km/h 55% 0.0 mm 0 W/m2
09:07 13.4 °C 4.6 °C 1010.4 hPa NNW 11.1 km/h 14.8 km/h 55% 0.0 mm 0 W/m2
09:12 13.8 °C 4.9 °C 1010.4 hPa NW 11.1 km/h 15.8 km/h 55% 0.0 mm 0 W/m2
09:17 13.9 °C 4.7 °C 1010.4 hPa NNW 5.0 km/h 15.8 km/h 54% 0.0 mm 0 W/m2
09:22 13.8 °C 4.7 °C 1010.4 hPa NNW 9.7 km/h 17.2 km/h 54% 0.0 mm 0 W/m2
09:27 13.8 °C 4.7 °C 1010.4 hPa NNW 3.5 km/h 17.2 km/h 54% 0.0 mm 0 W/m2
09:32 13.6 °C 4.7 °C 1010.4 hPa NNW 6.1 km/h 14.8 km/h 55% 0.0 mm 0 W/m2
09:37 13.4 °C 4.6 °C 1010.0 hPa NNW 6.1 km/h 11.1 km/h 55% 0.0 mm 0 W/m2
09:42 13.4 °C 4.6 °C 1010.0 hPa NNW 8.7 km/h 13.4 km/h 55% 0.0 mm 0 W/m2
09:47 13.5 °C 4.7 °C 1009.7 hPa North 11.1 km/h 15.8 km/h 55% 0.0 mm 0 W/m2
09:52 13.3 °C 4.7 °C 1009.7 hPa NNW 8.7 km/h 15.8 km/h 56% 0.0 mm 0 W/m2
09:57 12.9 °C 4.8 °C 1010.0 hPa NNW 9.7 km/h 15.8 km/h 58% 0.0 mm 0 W/m2
10:02 12.7 °C 4.9 °C 1009.7 hPa North 7.2 km/h 15.8 km/h 59% 0.0 mm 0 W/m2
10:07 12.6 °C 5.1 °C 1010.0 hPa North 9.7 km/h 15.8 km/h 60% 0.0 mm 0 W/m2
10:12 12.4 °C 4.8 °C 1009.7 hPa NNW 8.7 km/h 15.8 km/h 60% 0.0 mm 0 W/m2
10:17 12.4 °C 4.8 °C 1010.0 hPa NNW 8.7 km/h 15.8 km/h 60% 0.0 mm 0 W/m2
10:22 12.3 °C 4.8 °C 1009.7 hPa NNW 9.7 km/h 15.8 km/h 60% 0.0 mm 0 W/m2
10:27 12.4 °C 4.6 °C 1010.0 hPa NW 9.7 km/h 17.2 km/h 59% 0.0 mm 0 W/m2
10:32 12.6 °C 4.3 °C 1010.0 hPa WNW 11.1 km/h 18.3 km/h 57% 0.0 mm 0 W/m2
10:37 12.8 °C 4.2 °C 1009.7 hPa NNW 8.7 km/h 18.3 km/h 56% 0.0 mm 0 W/m2
10:42 12.7 °C 4.2 °C 1009.7 hPa North 9.7 km/h 18.3 km/h 56% 0.0 mm 0 W/m2
10:47 12.8 °C 4.2 °C 1009.7 hPa NNW 12.2 km/h 19.5 km/h 56% 0.0 mm 0 W/m2
10:52 13.0 °C 4.2 °C 1009.7 hPa NNW 9.7 km/h 21.9 km/h 55% 0.0 mm 0 W/m2
10:57 13.0 °C 3.9 °C 1009.7 hPa NNW 12.2 km/h 21.9 km/h 54% 0.0 mm 0 W/m2
11:02 13.1 °C 4.0 °C 1009.7 hPa North 12.2 km/h 21.9 km/h 54% 0.0 mm 0 W/m2
11:07 13.1 °C 4.0 °C 1009.7 hPa NNW 12.2 km/h 18.3 km/h 54% 0.0 mm 0 W/m2
11:12 13.1 °C 4.0 °C 1010.0 hPa NNW 5.0 km/h 19.5 km/h 54% 0.0 mm 0 W/m2
11:17 13.0 °C 4.2 °C 1010.0 hPa NNW 9.7 km/h 19.5 km/h 55% 0.0 mm 0 W/m2
11:22 12.9 °C 3.8 °C 1009.7 hPa NNW 9.7 km/h 17.2 km/h 54% 0.0 mm 0 W/m2
11:27 12.9 °C 4.1 °C 1009.7 hPa NNW 8.7 km/h 19.5 km/h 55% 0.0 mm 0 W/m2
11:32 12.8 °C 4.2 °C 1009.7 hPa NNW 5.0 km/h 19.5 km/h 56% 0.0 mm 0 W/m2
11:37 12.6 °C 4.3 °C 1009.7 hPa NNW 11.1 km/h 18.3 km/h 57% 0.0 mm 0 W/m2
11:42 12.6 °C 4.6 °C 1009.7 hPa North 9.7 km/h 18.3 km/h 58% 0.0 mm 0 W/m2
11:47 12.5 °C 4.9 °C 1009.7 hPa North 8.7 km/h 18.3 km/h 60% 0.0 mm 0 W/m2
11:52 12.4 °C 5.1 °C 1009.7 hPa North 8.7 km/h 18.3 km/h 61% 0.0 mm 0 W/m2
11:57 12.3 °C 5.2 °C 1009.4 hPa North 8.7 km/h 15.8 km/h 62% 0.0 mm 0 W/m2
12:02 12.3 °C 5.4 °C 1009.7 hPa North 12.2 km/h 20.9 km/h 63% 0.0 mm 0 W/m2
12:07 12.3 °C 5.7 °C 1009.7 hPa NNW 12.2 km/h 20.9 km/h 64% 0.0 mm 0 W/m2
12:12 12.3 °C 5.9 °C 1009.7 hPa NNW 9.7 km/h 21.9 km/h 65% 0.0 mm 0 W/m2
12:18 12.1 °C 5.9 °C 1009.7 hPa NNW 7.2 km/h 21.9 km/h 66% 0.0 mm 0 W/m2
12:23 12.0 °C 6.1 °C 1010.0 hPa NNW 9.7 km/h 19.5 km/h 67% 0.0 mm 0 W/m2
12:28 12.1 °C 6.2 °C 1010.0 hPa NW 7.2 km/h 19.5 km/h 67% 0.0 mm 0 W/m2
12:33 12.0 °C 6.1 °C 1010.0 hPa NW 8.7 km/h 15.8 km/h 67% 0.0 mm 0 W/m2
12:38 12.0 °C 6.3 °C 1010.0 hPa NNW 6.1 km/h 17.2 km/h 68% 0.0 mm 0 W/m2
12:43 12.0 °C 6.3 °C 1010.0 hPa NNW 7.2 km/h 17.2 km/h 68% 0.0 mm 0 W/m2
12:48 12.0 °C 6.5 °C 1009.7 hPa NNW 8.7 km/h 17.2 km/h 69% 0.0 mm 0 W/m2
12:53 12.0 °C 6.5 °C 1010.0 hPa NW 12.2 km/h 17.2 km/h 69% 0.0 mm 0 W/m2
12:58 12.1 °C 6.6 °C 1010.0 hPa NW 5.0 km/h 17.2 km/h 69% 0.0 mm 0 W/m2
13:03 12.0 °C 6.5 °C 1010.0 hPa NW 5.0 km/h 15.8 km/h 69% 0.0 mm 0 W/m2
13:08 11.9 °C 6.8 °C 1010.0 hPa NNW 5.0 km/h 11.1 km/h 71% 0.0 mm 0 W/m2
13:13 11.6 °C 6.7 °C 1010.0 hPa NNW 3.5 km/h 11.1 km/h 72% 0.0 mm 0 W/m2
13:18 11.4 °C 6.6 °C 1010.0 hPa NW 1.1 km/h 7.2 km/h 72% 0.0 mm 0 W/m2
13:23 11.3 °C 6.7 °C 1010.0 hPa Calm   6.1 km/h 73% 0.0 mm 0 W/m2
13:28 11.1 °C 6.4 °C 1010.4 hPa Calm   5.0 km/h 73% 0.0 mm 0 W/m2
13:33 11.1 °C 6.4 °C 1010.0 hPa NW 1.1 km/h 3.5 km/h 73% 0.0 mm 2 W/m2
13:38 10.9 °C 6.7 °C 1010.0 hPa Calm   3.5 km/h 75% 0.0 mm 5 W/m2
13:43 10.8 °C 6.6 °C 1010.4 hPa Calm   2.6 km/h 75% 0.0 mm 9 W/m2
13:48 10.6 °C 6.6 °C 1010.4 hPa Calm   1.1 km/h 76% 0.0 mm 18 W/m2
13:53 10.7 °C 6.8 °C 1010.4 hPa Calm   1.1 km/h 77% 0.0 mm 26 W/m2
13:58 10.9 °C 7.1 °C 1010.0 hPa Calm     77% 0.0 mm 74 W/m2
14:03 11.5 °C 7.4 °C 1010.0 hPa Calm   2.6 km/h 76% 0.0 mm 90 W/m2
14:08 12.1 °C 7.4 °C 1010.4 hPa Calm   2.6 km/h 73% 0.0 mm 102 W/m2
14:13 12.6 °C 7.7 °C 1010.4 hPa Calm   2.6 km/h 72% 0.0 mm 43 W/m2
14:18 12.4 °C 7.3 °C 1010.4 hPa NNW 1.1 km/h 3.5 km/h 71% 0.0 mm 67 W/m2
14:23 12.2 °C 7.3 °C 1010.4 hPa NNW 5.0 km/h 7.2 km/h 72% 0.0 mm 98 W/m2
14:28 12.3 °C 7.6 °C 1010.4 hPa NNW 2.6 km/h 8.7 km/h 73% 0.0 mm 64 W/m2
14:33 12.4 °C 7.7 °C 1010.4 hPa NNW 2.6 km/h 8.7 km/h 73% 0.0 mm 110 W/m2
14:38 13.0 °C 8.3 °C 1010.4 hPa Calm   8.7 km/h 73% 0.0 mm 149 W/m2
14:43 13.8 °C 8.8 °C 1010.7 hPa Calm   5.0 km/h 72% 0.0 mm 151 W/m2
14:48 14.7 °C 9.1 °C 1010.7 hPa Calm   2.6 km/h 69% 0.0 mm 158 W/m2
14:53 15.3 °C 9.0 °C 1010.7 hPa Calm   2.6 km/h 66% 0.0 mm 180 W/m2
14:58 15.5 °C 8.5 °C 1010.7 hPa NW 1.1 km/h 6.1 km/h 63% 0.0 mm 198 W/m2
15:03 15.2 °C 8.2 °C 1010.7 hPa NNW 1.1 km/h 6.1 km/h 63% 0.0 mm 175 W/m2
15:08 15.4 °C 8.4 °C 1010.7 hPa Calm   5.0 km/h 63% 0.0 mm 216 W/m2
15:13 15.7 °C 8.7 °C 1010.7 hPa NW 1.1 km/h 9.7 km/h 63% 0.0 mm 172 W/m2
15:18 15.9 °C 8.6 °C 1011.1 hPa Calm   9.7 km/h 62% 0.0 mm 210 W/m2
15:23 16.1 °C 8.6 °C 1011.4 hPa North 3.5 km/h 7.2 km/h 61% 0.0 mm 161 W/m2
15:28 16.2 °C 8.9 °C 1011.4 hPa NNW 1.1 km/h 7.2 km/h 62% 0.0 mm 158 W/m2
15:33 15.7 °C 8.7 °C 1011.4 hPa NNW 2.6 km/h 6.1 km/h 63% 0.0 mm 170 W/m2
15:38 15.4 °C 8.6 °C 1011.4 hPa NNW 1.1 km/h 7.2 km/h 64% 0.0 mm 252 W/m2
15:43 15.8 °C 9.0 °C 1011.1 hPa NNW 2.6 km/h 7.2 km/h 64% 0.0 mm 188 W/m2
15:48 16.0 °C 8.9 °C 1011.4 hPa Calm   6.1 km/h 63% 0.0 mm 215 W/m2
15:53 16.3 °C 9.3 °C 1011.4 hPa NNW 1.1 km/h 8.7 km/h 63% 0.0 mm 215 W/m2
15:59 16.4 °C 9.3 °C 1011.4 hPa Calm   8.7 km/h 63% 0.0 mm 193 W/m2
16:04 16.9 °C 9.8 °C 1011.7 hPa Calm   6.1 km/h 63% 0.0 mm 272 W/m2
16:09 17.5 °C 9.9 °C 1011.7 hPa Calm   2.6 km/h 61% 0.0 mm 259 W/m2
16:14 17.6 °C 9.2 °C 1011.7 hPa NW 1.1 km/h 5.0 km/h 58% 0.0 mm 281 W/m2
16:19 17.5 °C 8.4 °C 1012.1 hPa NW 6.1 km/h 9.7 km/h 55% 0.0 mm 270 W/m2
16:24 17.3 °C 8.4 °C 1011.7 hPa NNW 6.1 km/h 9.7 km/h 56% 0.0 mm 185 W/m2
16:29 16.9 °C 9.1 °C 1011.7 hPa NW 6.1 km/h 13.4 km/h 60% 0.0 mm 181 W/m2
16:34 16.8 °C 9.0 °C 1012.1 hPa NW 1.1 km/h 13.4 km/h 60% 0.0 mm 248 W/m2
16:39 17.2 °C 9.6 °C 1012.1 hPa WNW 6.1 km/h 12.2 km/h 61% 0.0 mm 343 W/m2
16:44 17.9 °C 10.1 °C 1012.1 hPa WNW 2.6 km/h 11.1 km/h 60% 0.0 mm 387 W/m2
16:49 18.4 °C 9.5 °C 1012.1 hPa WNW 11.1 km/h 17.2 km/h 56% 0.0 mm 431 W/m2
16:54 18.2 °C 9.0 °C 1012.1 hPa NW 9.7 km/h 17.2 km/h 55% 0.0 mm 404 W/m2
16:59 18.2 °C 9.0 °C 1012.1 hPa NW 6.1 km/h 17.2 km/h 55% 0.0 mm 398 W/m2
17:04 18.4 °C 9.2 °C 1012.1 hPa NW 13.4 km/h 18.3 km/h 55% 0.0 mm 382 W/m2
17:09 18.7 °C 9.5 °C 1012.4 hPa Calm   18.3 km/h 55% 0.0 mm 610 W/m2
17:14 19.3 °C 9.2 °C 1012.1 hPa WNW 5.0 km/h 18.3 km/h 52% 0.0 mm 144 W/m2
17:19 18.4 °C 8.9 °C 1012.1 hPa WNW 3.5 km/h 11.1 km/h 54% 0.0 mm 153 W/m2
17:24 17.6 °C 8.4 °C 1012.1 hPa WSW 8.7 km/h 14.8 km/h 55% 0.0 mm 125 W/m2
17:29 16.8 °C 8.7 °C 1012.1 hPa SW 2.6 km/h 14.8 km/h 59% 0.0 mm 154 W/m2
17:34 16.9 °C 9.6 °C 1012.1 hPa SW 6.1 km/h 14.8 km/h 62% 0.0 mm 150 W/m2
17:39 16.6 °C 9.6 °C 1011.7 hPa SSW 5.0 km/h 13.4 km/h 63% 0.0 mm 178 W/m2
17:44 16.6 °C 10.2 °C 1012.1 hPa SW 5.0 km/h 13.4 km/h 66% 0.0 mm 201 W/m2
17:49 16.5 °C 9.9 °C 1012.1 hPa SW 9.7 km/h 15.8 km/h 65% 0.0 mm 349 W/m2
17:54 16.5 °C 10.1 °C 1012.1 hPa SSW 9.7 km/h 17.2 km/h 66% 0.0 mm 252 W/m2
17:59 16.5 °C 10.1 °C 1012.1 hPa SSW 12.2 km/h 18.3 km/h 66% 0.0 mm 227 W/m2
18:04 16.6 °C 10.2 °C 1012.1 hPa SW 20.9 km/h 27.0 km/h 66% 0.0 mm 644 W/m2
18:09 16.9 °C 10.3 °C 1012.1 hPa SW 17.2 km/h 27.0 km/h 65% 0.0 mm 762 W/m2
18:14 17.2 °C 10.3 °C 1012.1 hPa SW 17.2 km/h 27.0 km/h 64% 0.0 mm 739 W/m2
18:19 17.8 °C 10.7 °C 1012.1 hPa WSW 12.2 km/h 25.6 km/h 63% 0.0 mm 269 W/m2
18:24 16.9 °C 9.6 °C 1011.7 hPa SW 11.1 km/h 27.0 km/h 62% 0.0 mm 689 W/m2
18:29 16.6 °C 10.0 °C 1012.1 hPa SSW 14.8 km/h 27.0 km/h 65% 0.0 mm 640 W/m2
18:34 17.4 °C 10.1 °C 1011.7 hPa SSW 12.2 km/h 21.9 km/h 62% 0.0 mm 640 W/m2
18:39 17.3 °C 9.7 °C 1011.7 hPa SW 9.7 km/h 21.9 km/h 61% 0.0 mm 598 W/m2
18:44 17.0 °C 8.9 °C 1011.7 hPa SW 14.8 km/h 25.6 km/h 59% 0.0 mm 158 W/m2
18:49 17.2 °C 9.1 °C 1011.7 hPa SW 14.8 km/h 28.0 km/h 59% 0.0 mm 731 W/m2
18:54 17.2 °C 8.6 °C 1012.1 hPa SW 14.8 km/h 29.4 km/h 57% 0.0 mm 556 W/m2
18:59 16.9 °C 9.3 °C 1012.1 hPa SW 17.2 km/h 29.4 km/h 61% 0.0 mm 783 W/m2
19:04 17.2 °C 9.6 °C 1011.7 hPa SW 15.8 km/h 23.3 km/h 61% 0.0 mm 216 W/m2
19:09 16.9 °C 9.3 °C 1012.1 hPa SSW 17.2 km/h 25.6 km/h 61% 0.0 mm 400 W/m2
19:14 16.6 °C 8.6 °C 1012.1 hPa SSW 21.9 km/h 33.1 km/h 59% 0.0 mm 310 W/m2
19:19 16.5 °C 8.7 °C 1012.1 hPa SSW 25.6 km/h 37.8 km/h 60% 0.0 mm 201 W/m2
19:24 15.9 °C 8.6 °C 1012.1 hPa SW 20.9 km/h 37.8 km/h 62% 0.0 mm 149 W/m2
19:29 15.6 °C 8.6 °C 1012.4 hPa SW 17.2 km/h 36.7 km/h 63% 0.0 mm 160 W/m2
19:34 15.3 °C 8.1 °C 1012.4 hPa SW 23.3 km/h 39.3 km/h 62% 0.0 mm 193 W/m2
19:39 15.0 °C 7.1 °C 1012.4 hPa SW 24.5 km/h 45.4 km/h 59% 0.0 mm 185 W/m2
19:44 14.5 °C 7.6 °C 1012.4 hPa SW 13.4 km/h 45.4 km/h 63% 0.0 mm 171 W/m2
19:49 14.5 °C 8.0 °C 1012.4 hPa SW 21.9 km/h 43.9 km/h 65% 0.0 mm 129 W/m2
19:54 14.6 °C 8.1 °C 1012.4 hPa SW 17.2 km/h 35.6 km/h 65% 0.0 mm 108 W/m2
19:59 14.7 °C 8.2 °C 1012.4 hPa WSW 14.8 km/h 30.6 km/h 65% 0.0 mm 105 W/m2
20:04 14.8 °C 8.1 °C 1012.4 hPa WSW 12.2 km/h 30.6 km/h 64% 0.0 mm 98 W/m2
20:09 14.8 °C 7.8 °C 1012.4 hPa SW 13.4 km/h 33.1 km/h 63% 0.0 mm 74 W/m2
20:25 12.8 °C 8.9 °C 1013.1 hPa WSW 7.2 km/h 25.6 km/h 77% 2.3 mm 82 W/m2
20:30 12.6 °C 8.9 °C 1013.1 hPa West 2.6 km/h 24.5 km/h 78% 2.3 mm 123 W/m2
20:35 12.8 °C 8.9 °C 1012.8 hPa West 5.0 km/h 18.3 km/h 77% 2.3 mm 105 W/m2
20:40 13.0 °C 8.9 °C 1012.8 hPa WSW 6.1 km/h 18.3 km/h 76% 2.8 mm 98 W/m2
20:57 12.5 °C 8.9 °C 1013.4 hPa WNW 2.6 km/h 13.4 km/h 79% 3.0 mm 66 W/m2
21:02 12.6 °C 9.1 °C 1013.4 hPa Calm   7.2 km/h 79% 3.0 mm 84 W/m2
21:07 12.8 °C 9.3 °C 1013.1 hPa Calm   7.2 km/h 79% 3.0 mm 140 W/m2
21:12 13.4 °C 9.4 °C 1013.4 hPa SSW 23.3 km/h 31.7 km/h 77% 3.0 mm 147 W/m2
21:17 13.3 °C 10.5 °C 1013.4 hPa South 18.3 km/h 33.1 km/h 83% 1.5 mm 98 W/m2
21:22 13.0 °C 10.2 °C 1013.4 hPa South 19.5 km/h 33.1 km/h 83% 0.5 mm 70 W/m2
21:27 12.8 °C 10.0 °C 1013.8 hPa South 24.5 km/h 39.3 km/h 83% 0.5 mm 94 W/m2
21:32 12.5 °C 9.7 °C 1013.8 hPa South 24.5 km/h 39.3 km/h 83% 0.5 mm 96 W/m2
21:37 12.4 °C 9.2 °C 1013.8 hPa South 19.5 km/h 39.3 km/h 81% 0.5 mm 248 W/m2
21:42 13.0 °C 9.4 °C 1013.4 hPa South 18.3 km/h 35.6 km/h 79% 0.3 mm 611 W/m2
21:47 13.9 °C 9.9 °C 1013.4 hPa South 11.1 km/h 34.3 km/h 77% 0.0 mm 569 W/m2
21:52 14.4 °C 10.1 °C 1013.8 hPa South 19.5 km/h 31.7 km/h 75% 0.0 mm 493 W/m2
21:57 14.9 °C 10.7 °C 1013.8 hPa SSW 11.1 km/h 29.4 km/h 76% 0.0 mm 464 W/m2
22:02 15.2 °C 10.4 °C 1013.4 hPa SSW 17.2 km/h 25.6 km/h 73% 0.0 mm 469 W/m2
22:07 15.0 °C 8.9 °C 1013.4 hPa SSW 18.3 km/h 30.6 km/h 67% 0.0 mm 494 W/m2
22:12 15.0 °C 8.3 °C 1013.8 hPa SSW 14.8 km/h 30.6 km/h 64% 0.0 mm 462 W/m2
22:17 15.1 °C 8.1 °C 1013.8 hPa SW 11.1 km/h 28.0 km/h 63% 0.0 mm 445 W/m2
22:22 15.3 °C 8.6 °C 1013.8 hPa SW 9.7 km/h 25.6 km/h 64% 0.0 mm 440 W/m2
22:27 15.1 °C 8.1 °C 1013.8 hPa SW 13.4 km/h 23.3 km/h 63% 0.0 mm 427 W/m2
22:32 15.0 °C 8.5 °C 1013.8 hPa SW 11.1 km/h 24.5 km/h 65% 0.0 mm 459 W/m2
22:37 15.5 °C 9.2 °C 1013.4 hPa SW 5.0 km/h 24.5 km/h 66% 0.0 mm 454 W/m2
22:42 15.5 °C 8.7 °C 1013.4 hPa SW 6.1 km/h 20.9 km/h 64% 0.0 mm 360 W/m2
22:47 15.6 °C 8.8 °C 1013.8 hPa SW 11.1 km/h 20.9 km/h 64% 0.0 mm 298 W/m2
22:52 15.8 °C 9.0 °C 1013.4 hPa SSW 1.1 km/h 17.2 km/h 64% 0.0 mm 401 W/m2
22:57 16.1 °C 8.1 °C 1013.8 hPa SSW 7.2 km/h 17.2 km/h 59% 0.0 mm 362 W/m2
23:02 16.1 °C 8.3 °C 1013.8 hPa SW 3.5 km/h 13.4 km/h 60% 0.0 mm 402 W/m2
23:07 16.5 °C 8.4 °C 1013.8 hPa SW 2.6 km/h 9.7 km/h 59% 0.0 mm 393 W/m2
23:12 16.9 °C 8.3 °C 1013.4 hPa Calm   7.2 km/h 57% 0.0 mm 74 W/m2
23:17 17.0 °C 8.2 °C 1013.8 hPa SW 7.2 km/h 14.8 km/h 56% 0.0 mm 285 W/m2
23:22 16.6 °C 8.1 °C 1013.8 hPa Calm   14.8 km/h 57% 0.0 mm 289 W/m2
23:27 17.0 °C 8.4 °C 1013.8 hPa SSW 12.2 km/h 14.8 km/h 57% 0.0 mm 353 W/m2
23:32 17.0 °C 8.4 °C 1013.8 hPa SSW 8.7 km/h 14.8 km/h 57% 0.0 mm 343 W/m2
23:37 16.8 °C 8.7 °C 1013.8 hPa SSW 11.1 km/h 15.8 km/h 59% 0.0 mm 329 W/m2
23:42 16.6 °C 8.8 °C 1013.8 hPa SSW 6.1 km/h 15.8 km/h 60% 0.0 mm 318 W/m2
23:47 17.0 °C 8.4 °C 1013.8 hPa SSW 2.6 km/h 15.8 km/h 57% 0.0 mm 309 W/m2
23:52 17.6 °C 8.7 °C 1013.4 hPa Calm   11.1 km/h 56% 0.0 mm 296 W/m2
23:57 18.2 °C 9.3 °C 1013.8 hPa Calm   8.7 km/h 56% 0.0 mm 285 W/m2
Northern Hawkes Bay. New Zealand Historic Data
Compliments of Weather Underground - 2 mb